Time;durP1;ratioP1;P1;durP2;ratioP2;P2;SDS_P1;SDS_P2;PMS_P1;PMS_P2;Temp;Humidity;BMP_temperature;BMP_pressure;BME280_temperature;BME280_humidity;BME280_pressure;Samples;Min_cycle;Max_cycle;Signal;HPM_P1;HPM_P2
2023/04/22 00:00:13;;;;;;;23.70;11.50;;;;;;;7.08;98.33;98790.23;105975;1257;61077;-82
2023/04/22 00:02:40;;;;;;;22.50;14.20;;;;;;;7.10;99.07;98790.70;106081;1256;74928;-83
2023/04/22 00:05:12;;;;;;;;;;;;;;;6.99;100.00;98787.05;106310;1253;69587;-82
2023/04/22 00:07:41;;;;;;;27.80;17.00;;;;;;;6.94;100.00;98788.21;106156;1254;73326;-84
2023/04/22 00:10:11;;;;;;;32.60;18.90;;;;;;;6.85;100.00;98787.10;106184;1253;61748;-86
2023/04/22 00:12:38;;;;;;;41.20;22.70;;;;;;;6.86;100.00;98786.57;106228;1254;60487;-82
2023/04/22 00:15:06;;;;;;;37.60;22.80;;;;;;;6.74;100.00;98783.42;106604;1257;75006;-84
2023/04/22 00:17:33;;;;;;;56.50;23.30;;;;;;;6.46;100.00;98785.02;106318;1259;69494;-81
2023/04/22 00:20:00;;;;;;;38.30;23.90;;;;;;;6.48;100.00;98783.95;106260;1256;73747;-82
2023/04/22 00:22:27;;;;;;;47.60;25.30;;;;;;;6.41;100.00;98780.91;106348;1253;62282;-83
2023/04/22 00:24:54;;;;;;;33.80;20.80;;;;;;;6.42;100.00;98780.48;106311;1254;61082;-83
2023/04/22 00:27:22;;;;;;;42.00;24.10;;;;;;;6.39;100.00;98782.80;106186;1258;74776;-81
2023/04/22 00:29:48;;;;;;;37.30;22.20;;;;;;;6.35;100.00;98786.89;106247;1255;67691;-83
2023/04/22 00:32:15;;;;;;;38.20;21.40;;;;;;;6.34;100.00;98783.73;105918;1258;72791;-82
2023/04/22 00:34:42;;;;;;;30.40;15.20;;;;;;;6.33;100.00;98789.55;107057;1253;61803;-82
2023/04/22 00:37:09;;;;;;;38.50;21.90;;;;;;;6.35;100.00;98787.80;109116;1253;60235;-81
2023/04/22 00:39:38;;;;;;;32.50;19.60;;;;;;;6.34;100.00;98790.09;108341;1252;73795;-82
2023/04/22 00:42:06;;;;;;;31.00;19.40;;;;;;;6.42;100.00;98790.42;106783;1260;68471;-83
2023/04/22 00:44:34;;;;;;;43.90;29.80;;;;;;;6.57;100.00;98791.36;106543;1257;72790;-82
2023/04/22 00:47:01;;;;;;;25.10;16.90;;;;;;;6.69;100.00;98792.36;106343;1256;62041;-81
2023/04/22 00:49:28;;;;;;;40.20;24.70;;;;;;;6.77;100.00;98793.77;106425;1254;60479;-82
2023/04/22 00:51:55;;;;;;;46.60;27.50;;;;;;;6.77;100.00;98801.51;106403;1256;74639;-81
2023/04/22 00:54:22;;;;;;;47.70;28.80;;;;;;;6.77;100.00;98800.64;106557;1256;68578;-83
2023/04/22 00:56:49;;;;;;;48.40;33.60;;;;;;;6.79;100.00;98798.54;106343;1253;73379;-83
2023/04/22 00:59:15;;;;;;;42.70;27.80;;;;;;;6.63;100.00;98800.45;106393;1253;60427;-82
2023/04/22 01:01:43;;;;;;;79.30;42.40;;;;;;;6.57;100.00;98798.30;106492;1257;61317;-82
2023/04/22 01:04:11;;;;;;;43.40;25.40;;;;;;;6.69;100.00;98797.55;106348;1253;74658;-81
2023/04/22 01:06:39;;;;;;;35.60;22.20;;;;;;;6.76;100.00;98798.80;106229;1254;69673;-82
2023/04/22 01:09:06;;;;;;;50.20;32.70;;;;;;;6.71;100.00;98800.99;106221;1257;72089;-82
2023/04/22 01:11:35;;;;;;;29.00;20.00;;;;;;;6.72;100.00;98798.00;106075;1259;61236;-81
2023/04/22 01:14:02;;;;;;;26.30;15.30;;;;;;;6.73;100.00;98802.61;106203;1253;61201;-81
2023/04/22 01:16:30;;;;;;;31.90;20.60;;;;;;;6.51;100.00;98801.14;106244;1253;73049;-82
2023/04/22 01:18:56;;;;;;;50.30;24.40;;;;;;;6.48;100.00;98796.98;106299;1257;68665;-83
2023/04/22 01:21:24;;;;;;;41.10;25.70;;;;;;;6.53;100.00;98800.23;106191;1254;73572;-82
2023/04/22 01:23:51;;;;;;;31.80;20.00;;;;;;;6.54;100.00;98802.36;106140;1260;61926;-83
2023/04/22 01:26:17;;;;;;;39.90;23.30;;;;;;;6.44;100.00;98799.19;105935;1262;61280;-83
2023/04/22 01:28:44;;;;;;;36.90;21.10;;;;;;;6.34;100.00;98800.22;105887;1261;73172;-83
2023/04/22 01:31:11;;;;;;;46.00;25.80;;;;;;;6.29;100.00;98802.38;105949;1264;69697;-79
2023/04/22 01:33:38;;;;;;;22.80;15.60;;;;;;;6.30;100.00;98798.23;106217;1257;73772;-81
2023/04/22 01:36:05;;;;;;;25.10;14.80;;;;;;;6.17;100.00;98800.17;106075;1261;60913;-80
2023/04/22 01:38:33;;;;;;;21.90;11.00;;;;;;;6.14;100.00;98801.88;106080;1258;60530;-82
2023/04/22 01:41:01;;;;;;;18.50;12.50;;;;;;;6.08;100.00;98800.02;106051;1258;73656;-82
2023/04/22 01:43:29;;;;;;;31.50;11.70;;;;;;;5.98;100.00;98799.30;106282;1260;67744;-82
2023/04/22 01:45:56;;;;;;;19.70;11.90;;;;;;;5.93;100.00;98796.86;106090;1263;72803;-82
2023/04/22 01:48:23;;;;;;;11.90;8.70;;;;;;;5.96;100.00;98800.33;106410;1262;61167;-82
2023/04/22 01:50:50;;;;;;;12.00;7.70;;;;;;;5.89;100.00;98799.11;106451;1260;61271;-83
2023/04/22 01:53:17;;;;;;;16.90;8.70;;;;;;;5.97;100.00;98796.34;106352;1262;73592;-82
2023/04/22 01:55:44;;;;;;;12.20;8.20;;;;;;;5.96;100.00;98798.83;106566;1256;69670;-83
2023/04/22 01:58:12;;;;;;;10.10;7.80;;;;;;;5.97;100.00;98800.35;106552;1259;72696;-82
2023/04/22 02:00:40;;;;;;;13.10;9.50;;;;;;;6.01;100.00;98804.61;106502;1254;61315;-83
2023/04/22 02:03:07;;;;;;;22.60;18.00;;;;;;;5.98;100.00;98802.73;106491;1257;61164;-83
2023/04/22 02:05:38;;;;;;;68.00;43.70;;;;;;;5.86;100.00;98801.94;106533;1258;74740;-82
2023/04/22 02:08:05;;;;;;;102.60;54.80;;;;;;;5.94;100.00;98805.92;105963;1259;68961;-83
2023/04/22 02:10:32;;;;;;;89.20;45.30;;;;;;;6.07;100.00;98808.27;106171;1259;70555;-83
2023/04/22 02:12:59;;;;;;;44.00;29.20;;;;;;;6.27;100.00;98809.44;106481;1254;63298;-81
2023/04/22 02:15:26;;;;;;;21.70;15.10;;;;;;;6.14;100.00;98809.08;106530;1254;61253;-82
2023/04/22 02:17:53;;;;;;;19.70;14.20;;;;;;;6.12;100.00;98809.48;106721;1255;75665;-82
2023/04/22 02:20:20;;;;;;;32.90;22.20;;;;;;;6.23;100.00;98807.36;106897;1254;68848;-83
2023/04/22 02:22:47;;;;;;;25.90;18.10;;;;;;;6.32;100.00;98809.19;106976;1257;72323;-83
2023/04/22 02:25:14;;;;;;;30.80;16.60;;;;;;;6.27;100.00;98808.32;106514;1256;62117;-82
2023/04/22 02:27:41;;;;;;;19.20;13.70;;;;;;;6.32;100.00;98808.71;106149;1257;61331;-83
2023/04/22 02:30:09;;;;;;;33.40;20.20;;;;;;;6.40;100.00;98809.42;106160;1258;74780;-83
2023/04/22 02:32:37;;;;;;;16.00;10.40;;;;;;;6.39;100.00;98810.80;106273;1258;69857;-83
2023/04/22 02:35:05;;;;;;;17.70;12.10;;;;;;;6.44;100.00;98808.73;106329;1254;73441;-82
2023/04/22 02:37:32;;;;;;;19.30;12.50;;;;;;;6.49;100.00;98808.59;106291;1257;62307;-82
2023/04/22 02:39:59;;;;;;;25.40;14.80;;;;;;;6.49;100.00;98806.23;106162;1254;61338;-83
2023/04/22 02:42:26;;;;;;;22.40;14.90;;;;;;;6.35;100.00;98806.20;106169;1258;73651;-81
2023/04/22 02:44:54;;;;;;;24.00;17.00;;;;;;;6.10;100.00;98804.42;106176;1258;68672;-83
2023/04/22 02:47:22;;;;;;;;;;;;;;;6.19;100.00;98805.68;106042;1253;72263;-80
2023/04/22 02:49:49;;;;;;;30.60;19.70;;;;;;;6.02;100.00;98803.89;106130;1255;61226;-84
2023/04/22 02:52:17;;;;;;;27.60;17.90;;;;;;;5.86;100.00;98803.64;106336;1257;61402;-83
2023/04/22 02:54:43;;;;;;;33.20;16.70;;;;;;;5.86;100.00;98807.33;106292;1254;75542;-85
2023/04/22 02:57:10;;;;;;;65.80;32.60;;;;;;;6.03;100.00;98804.98;106068;1257;67811;-84
2023/04/22 02:59:37;;;;;;;28.10;17.00;;;;;;;6.03;100.00;98802.99;106210;1253;72446;-82
2023/04/22 03:02:05;;;;;;;15.10;10.70;;;;;;;5.80;100.00;98804.91;106104;1252;62027;-82
2023/04/22 03:05:03;;;;;;;16.80;9.40;;;;;;;5.79;100.00;98804.77;106193;1254;61242;-81
2023/04/22 03:07:30;;;;;;;17.50;12.20;;;;;;;5.82;100.00;98809.29;106186;1259;74669;-81
2023/04/22 03:09:57;;;;;;;13.80;10.10;;;;;;;5.83;100.00;98813.98;106312;1257;69765;-82
2023/04/22 03:12:24;;;;;;;14.20;11.20;;;;;;;5.89;100.00;98819.58;106190;1258;70661;-82
2023/04/22 03:14:51;;;;;;;15.50;11.50;;;;;;;6.03;100.00;98823.20;106282;1254;61318;-82
2023/04/22 03:17:19;;;;;;;16.70;11.00;;;;;;;6.02;100.00;98826.63;106258;1255;61136;-82
2023/04/22 03:19:46;;;;;;;19.60;11.90;;;;;;;5.96;100.00;98827.64;106306;1255;75621;-82
2023/04/22 03:22:13;;;;;;;16.70;9.90;;;;;;;6.03;100.00;98828.98;106267;1255;68491;-84
2023/04/22 03:24:40;;;;;;;9.90;8.40;;;;;;;5.97;100.00;98830.06;106046;1258;72650;-83
2023/04/22 03:27:11;;;;;;;9.20;8.30;;;;;;;5.94;100.00;98833.69;106080;1254;62409;-84
2023/04/22 03:29:39;;;;;;;19.80;10.60;;;;;;;6.10;100.00;98836.73;106032;1257;61163;-82
2023/04/22 03:32:06;;;;;;;16.20;12.40;;;;;;;6.22;100.00;98840.86;106353;1257;75408;-84
2023/04/22 03:34:34;;;;;;;22.90;18.10;;;;;;;6.38;100.00;98843.99;109088;1254;68690;-83
2023/04/22 03:37:04;;;;;;;13.70;11.70;;;;;;;6.39;100.00;98842.72;108298;1259;72357;-83
2023/04/22 03:39:51;;;;;;;16.90;11.80;;;;;;;6.32;100.00;98841.82;106755;1257;61537;-84
2023/04/22 03:42:18;;;;;;;16.20;11.00;;;;;;;6.34;100.00;98846.64;105885;1260;61256;-83
2023/04/22 03:44:45;;;;;;;23.90;15.90;;;;;;;6.44;100.00;98851.64;105918;1257;74987;-83
2023/04/22 03:47:13;;;;;;;30.70;19.40;;;;;;;6.51;100.00;98857.63;106154;1257;69230;-82
2023/04/22 03:49:45;;;;;;;57.10;34.00;;;;;;;6.57;100.00;98856.59;105847;1262;73834;-82
2023/04/22 03:52:12;;;;;;;67.50;41.10;;;;;;;6.61;100.00;98857.29;105865;1260;61289;-82
2023/04/22 03:54:43;;;;;;;57.50;37.20;;;;;;;6.63;100.00;98860.84;105816;1257;61231;-81
2023/04/22 03:57:09;;;;;;;50.70;35.10;;;;;;;6.72;100.00;98865.92;105839;1258;74622;-82
2023/04/22 03:59:38;;;;;;;50.40;35.00;;;;;;;6.97;100.00;98869.23;105979;1257;69095;-81
2023/04/22 04:02:06;;;;;;;45.40;25.00;;;;;;;7.00;100.00;98876.71;105934;1258;73573;-83
2023/04/22 04:04:33;;;;;;;57.20;36.10;;;;;;;6.98;100.00;98875.14;105901;1257;62048;-81
2023/04/22 04:07:01;;;;;;;43.50;26.70;;;;;;;7.02;100.00;98879.77;105741;1263;62445;-82
2023/04/22 04:09:28;;;;;;;30.30;21.20;;;;;;;7.16;100.00;98884.48;105624;1263;75356;-81
2023/04/22 04:11:55;;;;;;;20.90;15.00;;;;;;;7.11;100.00;98885.18;105827;1260;69607;-80
2023/04/22 04:14:22;;;;;;;18.70;13.30;;;;;;;7.14;100.00;98889.37;105878;1260;73576;-83
2023/04/22 04:16:51;;;;;;;12.30;8.40;;;;;;;7.09;100.00;98891.39;105986;1258;61684;-82
2023/04/22 04:19:29;;;;;;;10.80;7.90;;;;;;;7.00;100.00;98896.40;106170;1253;61254;-81
2023/04/22 04:21:56;;;;;;;12.70;9.00;;;;;;;6.98;100.00;98899.02;106009;1254;74586;-82
2023/04/22 04:24:24;;;;;;;14.00;9.70;;;;;;;7.02;100.00;98901.50;105978;1257;67891;-82
2023/04/22 04:26:56;;;;;;;13.10;9.60;;;;;;;7.09;100.00;98901.06;106133;1252;72505;-80
2023/04/22 04:29:28;;;;;;;17.00;11.10;;;;;;;7.09;100.00;98905.48;106192;1257;62376;-81
2023/04/22 04:32:03;;;;;;;11.50;8.90;;;;;;;7.20;100.00;98907.61;106234;1254;62310;-81
2023/04/22 04:34:33;;;;;;;13.60;8.90;;;;;;;7.92;100.00;98911.24;106062;1258;74698;-80
2023/04/22 04:37:01;;;;;;;12.50;7.30;;;;;;;8.58;98.64;98912.83;105962;1259;69289;-81
2023/04/22 04:39:35;;;;;;;12.50;8.00;;;;;;;9.00;93.20;98916.98;105944;1254;72541;-81
2023/04/22 04:42:02;;;;;;;11.40;7.20;;;;;;;9.12;91.11;98915.60;105918;1254;61353;-81
2023/04/22 04:44:31;;;;;;;16.30;7.90;;;;;;;9.38;92.12;98918.60;105800;1259;61334;-80
2023/04/22 04:46:58;;;;;;;16.10;7.00;;;;;;;9.50;86.05;98920.65;105874;1254;75718;-82
2023/04/22 04:49:29;;;;;;;14.50;7.40;;;;;;;9.76;85.93;98919.73;106174;1254;68824;-81
2023/04/22 04:51:57;;;;;;;12.80;6.40;;;;;;;10.04;81.16;98921.82;106049;1254;72866;-81
2023/04/22 04:54:25;;;;;;;11.00;7.40;;;;;;;10.36;78.46;98922.58;105924;1258;61273;-80
2023/04/22 04:56:52;;;;;;;14.70;8.40;;;;;;;10.81;76.57;98929.13;105960;1255;61160;-80
2023/04/22 04:59:19;;;;;;;11.70;7.20;;;;;;;10.99;75.49;98932.27;105957;1254;75478;-80
2023/04/22 05:01:47;;;;;;;11.30;7.50;;;;;;;10.76;75.66;98933.00;105936;1263;68586;-81
2023/04/22 05:04:14;;;;;;;10.80;7.50;;;;;;;10.42;78.93;98929.20;106114;1257;72703;-77
2023/04/22 05:06:42;;;;;;;12.50;7.60;;;;;;;10.12;80.39;98930.90;106143;1256;61362;-80
2023/04/22 05:09:09;;;;;;;11.60;6.80;;;;;;;10.00;81.56;98931.52;105921;1253;61131;-81
2023/04/22 05:11:36;;;;;;;12.30;7.20;;;;;;;10.53;78.62;98931.87;105886;1254;74777;-79
2023/04/22 05:14:08;;;;;;;11.50;6.70;;;;;;;11.11;72.19;98935.03;106119;1257;68891;-80
2023/04/22 05:16:38;;;;;;;8.50;6.10;;;;;;;11.84;69.49;98937.08;106064;1254;73545;-80
2023/04/22 05:19:07;;;;;;;8.10;5.70;;;;;;;12.36;64.37;98940.83;105904;1259;61426;-82
2023/04/22 05:21:34;;;;;;;9.00;5.80;;;;;;;12.36;64.34;98947.62;106095;1256;61227;-80
2023/04/22 05:24:01;;;;;;;8.00;5.70;;;;;;;12.51;64.54;98946.37;106066;1253;72448;-79
2023/04/22 05:26:28;;;;;;;17.50;5.80;;;;;;;12.29;63.25;98949.97;105836;1254;68973;-81
2023/04/22 05:28:55;;;;;;;6.80;5.70;;;;;;;12.10;65.06;98949.34;106064;1257;73618;-81
2023/04/22 05:31:22;;;;;;;11.50;5.80;;;;;;;12.04;65.21;98947.82;105978;1258;61320;-81
2023/04/22 05:33:49;;;;;;;10.40;6.40;;;;;;;11.82;65.19;98943.61;105816;1255;63020;-81
2023/04/22 05:36:16;;;;;;;10.70;6.40;;;;;;;11.84;66.06;98949.13;106048;1252;74237;-81
2023/04/22 05:38:44;;;;;;;8.30;6.40;;;;;;;12.04;64.68;98950.71;105925;1257;67092;-81
2023/04/22 05:41:11;;;;;;;11.00;6.50;;;;;;;12.56;63.47;98957.58;105856;1254;73473;-81
2023/04/22 05:43:38;;;;;;;17.00;7.30;;;;;;;13.36;58.31;98958.84;105864;1254;62952;-81
2023/04/22 05:46:08;;;;;;;9.10;5.90;;;;;;;13.66;56.49;98965.10;105867;1257;61228;-81
2023/04/22 05:48:37;;;;;;;11.00;6.00;;;;;;;13.61;55.24;98962.79;105858;1254;75552;-81
2023/04/22 05:51:07;;;;;;;10.40;6.00;;;;;;;13.50;57.01;98963.46;105869;1258;68224;-81
2023/04/22 05:53:35;;;;;;;9.50;6.80;;;;;;;13.29;56.48;98962.00;106140;1253;71921;-81
2023/04/22 05:56:02;;;;;;;9.40;6.60;;;;;;;13.18;57.45;98964.31;105977;1253;61386;-81
2023/04/22 05:58:29;;;;;;;11.80;6.50;;;;;;;13.64;57.19;98967.23;105912;1254;61467;-82
2023/04/22 06:01:01;;;;;;;11.80;6.00;;;;;;;14.38;53.59;98969.48;106052;1254;73540;-82
2023/04/22 06:04:04;;;;;;;7.70;5.40;;;;;;;14.93;51.68;98971.52;105897;1257;68052;-81
2023/04/22 06:06:32;;;;;;;9.20;5.90;;;;;;;15.42;49.86;98973.80;105850;1254;72303;-81
2023/04/22 06:08:59;;;;;;;12.30;6.70;;;;;;;15.64;47.79;98976.69;105932;1259;61276;-81
2023/04/22 06:11:27;;;;;;;9.70;6.10;;;;;;;15.58;48.08;98977.73;106132;1255;61279;-81
2023/04/22 06:13:54;;;;;;;19.20;7.10;;;;;;;15.90;47.63;98978.96;105830;1258;74902;-84
2023/04/22 06:16:21;;;;;;;11.10;6.10;;;;;;;16.00;46.54;98983.11;106053;1254;69275;-83
2023/04/22 06:18:48;;;;;;;9.30;6.50;;;;;;;16.18;46.47;98985.38;105829;1255;72516;-84
2023/04/22 06:21:14;;;;;;;10.80;6.50;;;;;;;16.42;45.96;98988.04;105980;1264;61340;-80
2023/04/22 06:23:41;;;;;;;11.20;6.50;;;;;;;16.11;45.74;98991.23;105974;1254;61333;-81
2023/04/22 06:26:08;;;;;;;10.70;7.30;;;;;;;15.99;46.44;98987.42;106055;1256;72881;-81
2023/04/22 06:28:35;;;;;;;10.10;6.70;;;;;;;15.96;46.09;98987.20;105827;1254;69627;-81
2023/04/22 06:31:06;;;;;;;8.20;6.20;;;;;;;15.85;46.11;98984.13;106168;1253;71879;-81
2023/04/22 06:33:33;;;;;;;8.90;6.90;;;;;;;15.94;46.36;98982.38;109045;1252;60073;-80
2023/04/22 06:36:03;;;;;;;9.40;6.50;;;;;;;16.01;45.14;98990.08;107836;1253;61212;-83
2023/04/22 06:38:30;;;;;;;13.60;7.10;;;;;;;15.76;45.42;98989.52;105995;1253;75714;-84
2023/04/22 06:41:26;;;;;;;11.30;7.50;;;;;;;16.28;44.07;98996.11;105768;1257;68715;-83
2023/04/22 06:43:57;;;;;;;10.90;8.30;;;;;;;16.89;42.67;99000.38;105866;1254;73439;-83
2023/04/22 06:46:48;;;;;;;13.80;8.40;;;;;;;17.37;42.03;98999.63;105837;1253;61398;-82
2023/04/22 06:49:37;;;;;;;13.20;8.50;;;;;;;17.50;42.46;99007.08;106057;1257;61234;-80
2023/04/22 06:52:18;;;;;;;11.40;7.30;;;;;;;17.34;42.65;99007.34;105975;1255;75846;-82
2023/04/22 06:54:46;;;;;;;15.50;8.20;;;;;;;17.38;42.63;99004.48;105999;1253;69549;-80
2023/04/22 06:57:13;;;;;;;11.90;6.80;;;;;;;17.37;42.51;99007.92;105918;1257;72353;-82
2023/04/22 06:59:39;;;;;;;11.60;7.70;;;;;;;17.12;43.42;99010.79;105827;1253;61282;-82
2023/04/22 07:02:07;;;;;;;15.30;6.70;;;;;;;17.01;43.10;99011.16;105917;1254;61417;-81
2023/04/22 07:04:36;;;;;;;9.40;7.00;;;;;;;16.86;43.43;99010.56;106087;1253;74633;-84
2023/04/22 07:07:04;;;;;;;14.90;8.10;;;;;;;16.76;42.41;99014.67;106107;1253;68716;-81
2023/04/22 07:09:32;;;;;;;13.30;8.40;;;;;;;16.49;43.49;99012.92;105852;1253;73549;-82
2023/04/22 07:12:00;;;;;;;11.10;8.50;;;;;;;16.21;43.70;99008.56;106061;1253;61329;-81
2023/04/22 07:14:31;;;;;;;14.50;7.70;;;;;;;15.86;44.52;99004.63;105881;1254;61400;-81
2023/04/22 07:16:58;;;;;;;10.80;7.70;;;;;;;15.70;45.46;99002.81;106134;1256;74945;-80
2023/04/22 07:19:25;;;;;;;12.30;7.80;;;;;;;16.19;46.01;99009.34;106120;1256;69155;-82
2023/04/22 07:21:53;;;;;;;13.70;8.10;;;;;;;16.99;45.78;99008.21;106123;1256;71542;-81
2023/04/22 07:24:19;;;;;;;10.20;7.10;;;;;;;17.61;44.30;99008.65;106124;1254;61234;-81
2023/04/22 07:26:46;;;;;;;12.30;6.60;;;;;;;17.79;44.41;99012.87;106188;1257;61328;-83
2023/04/22 07:29:13;;;;;;;12.30;7.80;;;;;;;17.85;43.76;99007.55;106220;1256;74958;-81
2023/04/22 07:31:40;;;;;;;11.70;7.00;;;;;;;18.00;43.69;99013.85;106293;1255;69514;-82
2023/04/22 07:34:08;;;;;;;15.20;7.40;;;;;;;18.28;41.10;99010.31;106102;1253;73151;-82
2023/04/22 07:36:34;;;;;;;;;;;;;;;18.19;39.97;99011.98;106058;1253;61212;-82
2023/04/22 07:39:01;;;;;;;17.50;7.90;;;;;;;18.17;40.28;99011.94;105930;1258;60582;-81
2023/04/22 07:41:28;;;;;;;11.10;8.30;;;;;;;18.26;38.93;99013.15;105841;1253;75309;-80
2023/04/22 07:43:55;;;;;;;10.30;7.50;;;;;;;18.28;39.18;99016.40;105867;1253;69568;-82
2023/04/22 07:46:22;;;;;;;10.20;7.60;;;;;;;18.81;39.57;99019.80;105875;1257;73074;-81
2023/04/22 07:48:49;;;;;;;12.40;7.40;;;;;;;19.09;38.18;99020.51;105842;1254;61275;-81
2023/04/22 07:51:16;;;;;;;10.50;7.60;;;;;;;18.96;36.29;99017.20;106510;1252;60264;-82
2023/04/22 07:53:43;;;;;;;12.50;6.90;;;;;;;18.40;36.68;99019.58;105896;1256;75461;-83
2023/04/22 07:56:10;;;;;;;10.40;8.30;;;;;;;18.59;36.88;99021.00;105874;1253;69544;-82
2023/04/22 07:58:37;;;;;;;12.70;8.10;;;;;;;18.62;36.73;99019.98;105837;1254;73558;-82
2023/04/22 08:01:04;;;;;;;16.60;8.20;;;;;;;18.49;36.80;99013.64;105835;1254;61358;-81
2023/04/22 08:03:31;;;;;;;10.10;6.10;;;;;;;18.91;36.84;99024.84;106273;1253;61359;-82
2023/04/22 08:05:58;;;;;;;9.50;6.30;;;;;;;19.43;35.90;99020.45;105958;1255;75700;-80
2023/04/22 08:08:25;;;;;;;8.90;5.90;;;;;;;19.71;34.94;99027.39;106289;1253;67737;-82
2023/04/22 08:10:52;;;;;;;10.80;7.20;;;;;;;19.70;34.74;99022.73;106161;1253;73731;-81
2023/04/22 08:13:19;;;;;;;8.90;6.50;;;;;;;19.21;34.42;99021.69;105906;1253;61571;-85
2023/04/22 08:15:46;;;;;;;14.70;6.00;;;;;;;19.10;34.20;99025.59;105861;1253;61270;-82
2023/04/22 08:18:13;;;;;;;8.50;6.00;;;;;;;18.96;33.92;99018.59;105862;1254;74429;-83
2023/04/22 08:20:39;;;;;;;9.20;5.90;;;;;;;18.77;34.46;99025.52;105857;1253;69592;-82
2023/04/22 08:23:06;;;;;;;12.60;5.90;;;;;;;18.94;34.88;99022.41;105837;1254;72883;-81
2023/04/22 08:25:33;;;;;;;10.30;5.90;;;;;;;19.09;34.12;99022.14;105838;1253;61221;-84
2023/04/22 08:28:00;;;;;;;10.50;5.90;;;;;;;19.28;33.94;99029.39;105834;1253;61267;-81
2023/04/22 08:30:27;;;;;;;8.70;5.60;;;;;;;19.29;33.43;99028.52;105847;1253;75189;-79
2023/04/22 08:32:53;;;;;;;10.20;4.90;;;;;;;19.28;33.54;99026.77;105838;1253;69457;-81
2023/04/22 08:35:20;;;;;;;12.60;5.10;;;;;;;19.84;32.38;99027.89;105789;1256;72216;-79
2023/04/22 08:37:47;;;;;;;8.40;5.10;;;;;;;20.19;31.85;99031.77;105863;1258;61288;-82
2023/04/22 08:40:14;;;;;;;5.30;4.50;;;;;;;20.48;31.77;99028.43;106107;1252;61551;-81
2023/04/22 08:42:41;;;;;;;5.50;4.70;;;;;;;20.38;31.32;99030.23;106093;1256;74639;-80
2023/04/22 08:45:08;;;;;;;8.90;5.10;;;;;;;20.26;31.19;99032.95;106088;1256;68292;-82
2023/04/22 08:47:37;;;;;;;7.50;4.60;;;;;;;20.43;31.69;99031.27;106255;1256;73760;-81
2023/04/22 08:50:05;;;;;;;16.70;5.80;;;;;;;20.76;31.54;99033.53;106350;1256;61333;-82
2023/04/22 08:52:32;;;;;;;7.60;5.30;;;;;;;20.95;30.80;99028.83;105846;1254;61167;-82
2023/04/22 08:54:59;;;;;;;6.60;4.30;;;;;;;20.93;31.17;99036.79;106067;1254;74686;-82
2023/04/22 08:57:26;;;;;;;5.60;4.50;;;;;;;20.92;29.51;99034.03;106095;1254;69690;-82
2023/04/22 08:59:55;;;;;;;10.80;5.00;;;;;;;20.65;29.46;99032.95;105869;1254;72554;-81
2023/04/22 09:02:23;;;;;;;8.90;4.90;;;;;;;20.70;29.70;99038.55;105744;1257;108809;-80
2023/04/22 09:04:50;;;;;;;;;;;;;;;20.61;29.27;99042.95;105766;1254;61503;-80
2023/04/22 09:07:24;;;;;;;5.20;4.30;;;;;;;20.53;29.05;99033.98;106030;1253;72391;-81
2023/04/22 09:09:52;;;;;;;4.90;4.30;;;;;;;20.63;29.22;99039.44;106044;1253;69017;-80
2023/04/22 09:12:19;;;;;;;11.70;4.40;;;;;;;20.47;28.89;99037.71;106100;1253;73273;-82
2023/04/22 09:14:46;;;;;;;6.40;3.60;;;;;;;20.82;28.76;99037.48;106050;1253;61241;-86
2023/04/22 09:17:17;;;;;;;3.90;2.50;;;;;;;21.05;26.80;99046.58;106033;1252;61253;-80
2023/04/22 09:19:44;;;;;;;3.60;2.70;;;;;;;20.71;27.16;99041.23;106432;1252;74587;-80
2023/04/22 09:22:13;;;;;;;6.50;3.00;;;;;;;20.79;27.59;99038.93;106300;1253;69775;-89
2023/04/22 09:24:43;;;;;;;3.00;2.30;;;;;;;21.21;26.33;99041.11;106048;1253;72050;-80
2023/04/22 09:27:10;;;;;;;5.30;2.40;;;;;;;21.22;25.81;99033.41;106197;1253;62440;-79
2023/04/22 09:29:37;;;;;;;8.60;2.90;;;;;;;21.06;26.61;99036.91;106285;1253;61197;-80
2023/04/22 09:32:10;;;;;;;3.10;2.50;;;;;;;20.99;26.84;99040.63;106048;1256;74532;-83
2023/04/22 09:34:51;;;;;;;3.70;2.50;;;;;;;20.76;25.72;99036.41;106063;1254;68495;-84
2023/04/22 09:37:27;;;;;;;5.30;3.60;;;;;;;20.92;27.35;99030.81;108513;1252;73293;-79
2023/04/22 09:40:07;;;;;;;8.80;3.50;;;;;;;21.53;28.15;99030.42;109111;1253;61212;-80
2023/04/22 09:42:34;;;;;;;6.50;4.40;;;;;;;20.86;28.02;99028.48;106346;1255;61254;-82
2023/04/22 09:45:01;;;;;;;5.20;3.50;;;;;;;20.41;28.89;99028.06;105940;1253;74891;-79
2023/04/22 09:47:34;;;;;;;7.70;4.70;;;;;;;20.33;29.66;99029.02;105861;1253;67631;-83
2023/04/22 09:50:03;;;;;;;5.10;3.30;;;;;;;19.96;29.74;99027.98;105846;1254;72945;-81
2023/04/22 09:52:30;;;;;;;4.40;3.20;;;;;;;19.86;29.52;99030.23;105842;1254;61336;-79
2023/04/22 09:54:57;;;;;;;6.40;3.70;;;;;;;19.73;29.30;99031.27;105795;1257;61193;-82
2023/04/22 09:57:24;;;;;;;6.40;4.30;;;;;;;19.69;29.60;99029.01;105871;1256;74630;-79
2023/04/22 09:59:51;;;;;;;7.20;4.00;;;;;;;20.29;29.19;99029.73;105815;1257;69439;-80
2023/04/22 10:02:18;;;;;;;4.10;3.30;;;;;;;20.78;28.62;99035.41;105800;1257;73788;-80
2023/04/22 10:04:46;;;;;;;9.10;3.80;;;;;;;20.54;28.67;99030.67;105698;1257;61369;-80
2023/04/22 10:07:14;;;;;;;7.40;3.70;;;;;;;20.27;29.50;99033.52;105716;1257;61225;-81
2023/04/22 10:09:40;;;;;;;5.30;4.20;;;;;;;20.12;29.44;99030.17;106055;1256;73502;-81
2023/04/22 10:12:08;;;;;;;11.40;4.40;;;;;;;19.82;29.88;99028.67;105943;1259;69658;-83
2023/04/22 10:14:35;;;;;;;4.90;3.60;;;;;;;19.61;29.59;99030.60;105952;1256;73558;-80
2023/04/22 10:17:03;;;;;;;5.30;3.50;;;;;;;19.28;29.43;99033.27;106074;1259;61270;-78
2023/04/22 10:19:32;;;;;;;7.60;4.10;;;;;;;19.38;29.98;99027.95;105674;1256;61341;-81
2023/04/22 10:22:01;;;;;;;4.80;3.70;;;;;;;19.73;29.75;99030.79;105683;1257;73562;-81
2023/04/22 10:24:29;;;;;;;5.00;3.60;;;;;;;20.42;29.15;99028.90;105769;1257;69652;-81
2023/04/22 10:26:57;;;;;;;7.10;3.50;;;;;;;20.57;27.73;99027.15;105822;1253;72296;-81
2023/04/22 10:29:25;;;;;;;3.90;3.10;;;;;;;20.57;27.25;99027.93;106018;1254;61273;-81
2023/04/22 10:32:03;;;;;;;9.10;3.40;;;;;;;20.51;28.42;99026.69;105850;1257;61473;-81
2023/04/22 10:34:33;;;;;;;9.90;4.00;;;;;;;20.55;27.51;99030.02;105991;1255;75608;-81
2023/04/22 10:37:05;;;;;;;6.90;4.00;;;;;;;20.59;28.18;99032.60;105848;1254;69315;-80
2023/04/22 10:39:32;;;;;;;6.80;3.70;;;;;;;20.46;26.88;99031.23;106083;1253;73519;-84
2023/04/22 10:42:04;;;;;;;8.80;5.30;;;;;;;20.18;29.17;99028.90;106122;1253;61364;-81
2023/04/22 10:44:50;;;;;;;6.50;3.50;;;;;;;20.00;28.56;99025.70;106108;1252;61240;-80
2023/04/22 10:47:34;;;;;;;5.40;3.20;;;;;;;20.25;27.89;99024.52;106212;1252;72739;-81
2023/04/22 10:50:11;;;;;;;4.10;3.40;;;;;;;20.40;27.17;99030.60;105978;1256;67163;-79
2023/04/22 10:52:38;;;;;;;5.20;2.80;;;;;;;20.46;27.42;99022.41;106156;1256;72544;-82
2023/04/22 10:55:05;;;;;;;6.00;3.40;;;;;;;20.40;27.64;99026.17;105955;1254;61243;-82
2023/04/22 10:57:57;;;;;;;5.80;3.40;;;;;;;20.36;28.27;99031.39;106090;1252;61340;-81
2023/04/22 11:00:27;;;;;;;19.40;7.60;;;;;;;20.13;27.79;99031.75;106088;1254;74419;-81
2023/04/22 11:03:04;;;;;;;4.10;2.80;;;;;;;19.81;26.67;99030.33;106099;1252;69362;-80
2023/04/22 11:05:33;;;;;;;13.10;6.40;;;;;;;19.77;27.09;99029.08;105860;1257;73703;-82
2023/04/22 11:08:19;;;;;;;8.10;4.30;;;;;;;20.17;27.07;99035.11;105821;1258;61324;-79
2023/04/22 11:10:50;;;;;;;4.20;3.20;;;;;;;20.03;27.41;99035.42;105915;1254;62953;-82
2023/04/22 11:13:18;;;;;;;6.00;3.40;;;;;;;19.53;27.83;99032.07;106126;1253;73448;-79
2023/04/22 11:15:49;;;;;;;7.60;4.60;;;;;;;19.23;28.91;99035.55;106120;1256;67525;-80
2023/04/22 11:18:22;;;;;;;4.10;3.30;;;;;;;18.95;28.84;99034.95;105908;1260;73780;-80
2023/04/22 11:20:49;;;;;;;5.80;3.40;;;;;;;18.55;28.63;99038.45;106090;1254;61266;-80
2023/04/22 11:23:25;;;;;;;6.20;3.50;;;;;;;18.52;29.02;99033.66;106089;1254;61501;-82
2023/04/22 11:25:59;;;;;;;5.00;3.90;;;;;;;18.60;29.40;99038.96;106090;1254;75336;-82